createdAt,value
2023-07-03T00:00:20.503Z,17.08
2023-07-03T00:02:52.151Z,14.85
2023-07-03T00:05:19.802Z,14.57
2023-07-03T00:07:48.468Z,13.70
2023-07-03T00:10:16.556Z,15.13
2023-07-03T00:12:44.058Z,17.52
2023-07-03T00:15:12.186Z,18.27
2023-07-03T00:17:39.548Z,11.98
2023-07-03T00:20:12.292Z,16.63
2023-07-03T00:22:39.696Z,10.32
2023-07-03T00:25:07.871Z,14.48
2023-07-03T00:27:35.263Z,16.63
2023-07-03T00:30:02.746Z,18.20
2023-07-03T00:32:30.195Z,17.02
2023-07-03T00:34:57.576Z,13.30
2023-07-03T00:37:27.860Z,18.80
2023-07-03T00:39:55.198Z,16.13
2023-07-03T00:42:24.188Z,9.60
2023-07-03T00:44:51.591Z,14.85
2023-07-03T00:47:19.078Z,18.20
2023-07-03T00:49:46.682Z,16.90
2023-07-03T00:52:14.611Z,18.77
2023-07-03T00:54:43.608Z,20.60
2023-07-03T00:57:12.799Z,14.75
2023-07-03T00:59:40.263Z,17.67
2023-07-03T01:02:10.730Z,18.52
2023-07-03T01:04:40.756Z,15.20
2023-07-03T01:07:09.498Z,16.90
2023-07-03T01:09:39.686Z,15.30
2023-07-03T01:12:09.509Z,17.42
2023-07-03T01:14:37.828Z,12.52
2023-07-03T01:17:10.734Z,16.02
2023-07-03T01:19:39.460Z,16.13
2023-07-03T01:22:09.910Z,13.68
2023-07-03T01:24:40.895Z,26.58
2023-07-03T01:27:10.260Z,20.38
2023-07-03T01:29:38.479Z,18.08
2023-07-03T01:32:07.181Z,17.40
2023-07-03T01:34:34.969Z,15.57
2023-07-03T01:37:03.359Z,17.77
2023-07-03T01:39:31.046Z,18.38
2023-07-03T01:42:00.279Z,14.50
2023-07-03T01:44:28.111Z,17.85
2023-07-03T01:46:55.483Z,15.30
2023-07-03T01:49:22.822Z,23.92
2023-07-03T01:51:55.928Z,17.67
2023-07-03T01:54:28.098Z,21.40
2023-07-03T01:56:56.153Z,18.00
2023-07-03T01:59:26.400Z,17.40
2023-07-03T02:01:56.532Z,15.77
2023-07-03T02:04:27.493Z,16.30
2023-07-03T02:06:55.540Z,16.88
2023-07-03T02:09:23.274Z,15.43
2023-07-03T02:11:50.693Z,15.50
2023-07-03T02:14:18.144Z,24.15
2023-07-03T02:16:48.384Z,12.75
2023-07-03T02:19:16.288Z,17.80
2023-07-03T02:21:44.990Z,18.63
2023-07-03T02:24:12.681Z,18.88
2023-07-03T02:26:40.169Z,18.60
2023-07-03T02:29:07.602Z,14.57
2023-07-03T02:31:34.945Z,18.38
2023-07-03T02:34:03.628Z,23.20
2023-07-03T02:36:31.568Z,21.88
2023-07-03T02:38:59.670Z,17.42
2023-07-03T02:41:26.982Z,26.65
2023-07-03T02:43:54.350Z,17.00
2023-07-03T02:46:21.748Z,20.50
2023-07-03T02:48:49.118Z,21.70
2023-07-03T02:51:17.843Z,20.35
2023-07-03T02:53:45.180Z,18.42
2023-07-03T02:56:12.595Z,21.95
2023-07-03T02:58:39.943Z,18.65
2023-07-03T03:01:07.387Z,17.50
2023-07-03T03:03:35.154Z,22.20
2023-07-03T03:06:02.631Z,17.40
2023-07-03T03:08:31.475Z,16.92
2023-07-03T03:10:59.680Z,13.85
2023-07-03T03:13:27.052Z,20.92
2023-07-03T03:15:54.492Z,16.00
2023-07-03T03:18:22.025Z,19.90
2023-07-03T03:20:49.421Z,18.80
2023-07-03T03:23:16.809Z,25.88
2023-07-03T03:25:45.531Z,15.05
2023-07-03T03:28:12.855Z,20.65
2023-07-03T03:30:40.250Z,16.23
2023-07-03T03:33:07.575Z,25.63
2023-07-03T03:35:34.947Z,24.05
2023-07-03T03:38:02.288Z,18.13
2023-07-03T03:40:29.633Z,20.42
2023-07-03T03:42:58.373Z,15.77
2023-07-03T03:45:26.247Z,15.93
2023-07-03T03:47:53.742Z,19.35
2023-07-03T03:50:21.216Z,23.60
2023-07-03T03:52:48.787Z,22.25
2023-07-03T03:55:16.175Z,15.55
2023-07-03T03:57:43.505Z,20.20
2023-07-03T04:00:17.994Z,19.90
2023-07-03T04:02:45.520Z,21.55
2023-07-03T04:05:13.574Z,16.60
2023-07-03T04:07:41.053Z,14.30
2023-07-03T04:10:09.251Z,16.48
2023-07-03T04:12:36.581Z,22.92
2023-07-03T04:15:04.417Z,16.48
2023-07-03T04:17:33.143Z,22.30
2023-07-03T04:20:00.502Z,17.75
2023-07-03T04:22:28.005Z,13.90
2023-07-03T04:24:55.361Z,19.58
2023-07-03T04:27:22.727Z,19.98
2023-07-03T04:29:50.220Z,16.27
2023-07-03T04:32:17.586Z,19.13
2023-07-03T04:34:46.271Z,19.70
2023-07-03T04:37:14.228Z,23.02
2023-07-03T04:39:41.554Z,20.23
2023-07-03T04:42:14.303Z,22.52
2023-07-03T04:44:42.884Z,20.60
2023-07-03T04:47:10.294Z,21.85
2023-07-03T04:49:37.736Z,18.63
2023-07-03T04:52:06.973Z,21.95
2023-07-03T04:54:34.308Z,21.05
2023-07-03T04:57:04.464Z,22.55
2023-07-03T04:59:32.007Z,27.92
2023-07-03T05:01:59.464Z,18.83
2023-07-03T05:04:26.925Z,19.38
2023-07-03T05:06:54.259Z,18.90
2023-07-03T05:09:22.971Z,23.08
2023-07-03T05:11:50.571Z,18.90
2023-07-03T05:14:18.100Z,20.35
2023-07-03T05:16:45.476Z,16.88
2023-07-03T05:19:14.345Z,15.93
2023-07-03T05:21:41.691Z,19.17
2023-07-03T05:24:09.130Z,19.10
2023-07-03T05:26:37.808Z,24.75
2023-07-03T05:29:05.185Z,24.77
2023-07-03T05:31:32.554Z,19.25
2023-07-03T05:34:00.110Z,23.88
2023-07-03T05:36:27.454Z,13.88
2023-07-03T05:38:54.824Z,22.42
2023-07-03T05:41:22.163Z,22.70
2023-07-03T05:43:50.799Z,20.25
2023-07-03T05:46:19.619Z,18.80
2023-07-03T05:48:47.954Z,19.60
2023-07-03T05:51:15.286Z,18.55
2023-07-03T05:53:42.580Z,20.00
2023-07-03T05:56:09.922Z,22.70
2023-07-03T05:58:37.324Z,17.42
2023-07-03T06:01:06.041Z,16.55
2023-07-03T06:03:33.818Z,21.95
2023-07-03T06:06:01.290Z,19.02
2023-07-03T06:08:28.615Z,14.82
2023-07-03T06:10:55.990Z,17.30
2023-07-03T06:13:23.528Z,17.38
2023-07-03T06:15:51.058Z,21.23
2023-07-03T06:18:19.884Z,17.63
2023-07-03T06:20:47.775Z,15.45
2023-07-03T06:23:15.087Z,18.92
2023-07-03T06:25:42.574Z,14.32
2023-07-03T06:28:09.923Z,14.93
2023-07-03T06:30:37.271Z,19.65
2023-07-03T06:33:04.809Z,15.10
2023-07-03T06:35:49.940Z,20.45
2023-07-03T06:38:17.305Z,21.40
2023-07-03T06:40:44.637Z,15.20
2023-07-03T06:43:12.015Z,19.40
2023-07-03T06:45:39.755Z,18.60
2023-07-03T06:48:07.803Z,17.10
2023-07-03T06:50:37.358Z,17.85
2023-07-03T06:53:04.732Z,17.40
2023-07-03T06:55:32.227Z,20.77
2023-07-03T06:58:01.468Z,21.73
2023-07-03T07:00:30.140Z,22.25
2023-07-03T07:02:58.202Z,21.38
2023-07-03T07:05:28.657Z,17.77
2023-07-03T07:07:57.437Z,20.10
2023-07-03T07:10:25.365Z,16.10
2023-07-03T07:12:52.708Z,17.42
2023-07-03T07:15:20.067Z,20.02
2023-07-03T07:17:51.867Z,18.90
2023-07-03T07:20:19.800Z,16.33
2023-07-03T07:22:47.173Z,23.60
2023-07-03T07:25:15.974Z,15.90
2023-07-03T07:27:43.499Z,15.00
2023-07-03T07:30:11.403Z,16.90
2023-07-03T07:32:38.760Z,22.75
2023-07-03T07:35:09.314Z,21.10
2023-07-03T07:37:36.651Z,20.75
2023-07-03T07:40:04.771Z,13.23
2023-07-03T07:42:33.579Z,16.88
2023-07-03T07:45:01.085Z,14.15
2023-07-03T07:47:28.458Z,17.45
2023-07-03T07:49:55.823Z,12.15
2023-07-03T07:52:24.877Z,14.98
2023-07-03T07:54:55.043Z,17.75
2023-07-03T07:57:22.565Z,17.88
2023-07-03T07:59:51.251Z,10.35
2023-07-03T08:02:18.632Z,15.10
2023-07-03T08:04:46.524Z,11.68
2023-07-03T08:07:13.954Z,13.07
2023-07-03T08:09:41.629Z,14.80
2023-07-03T08:12:09.508Z,12.90
2023-07-03T08:14:36.835Z,15.13
2023-07-03T08:17:05.656Z,13.98
2023-07-03T08:19:33.025Z,10.98
2023-07-03T08:22:00.359Z,15.93
2023-07-03T08:24:27.694Z,18.05
2023-07-03T08:26:55.399Z,12.00
2023-07-03T08:29:22.736Z,16.38
2023-07-03T08:31:50.100Z,15.02
2023-07-03T08:34:19.152Z,15.32
2023-07-03T08:39:16.731Z,12.50
2023-07-03T08:41:46.970Z,13.93
2023-07-03T08:44:14.574Z,13.43
2023-07-03T08:46:42.765Z,11.43
2023-07-03T08:49:14.153Z,12.15
2023-07-03T08:51:44.207Z,13.25
2023-07-03T08:54:16.323Z,15.43
2023-07-03T08:56:44.268Z,10.45
2023-07-03T08:59:11.712Z,17.75
2023-07-03T09:01:43.408Z,15.80
2023-07-03T09:04:26.207Z,12.35
2023-07-03T09:06:56.142Z,10.40
2023-07-03T09:09:27.672Z,10.95
2023-07-03T09:11:57.328Z,10.82
2023-07-03T09:14:26.506Z,11.13
2023-07-03T09:16:54.147Z,13.20
2023-07-03T09:19:23.587Z,12.40
2023-07-03T09:21:53.655Z,9.85
2023-07-03T09:24:24.066Z,11.88
2023-07-03T09:26:55.504Z,13.65
2023-07-03T09:29:23.563Z,9.57
2023-07-03T09:31:51.964Z,12.82
2023-07-03T09:34:20.457Z,11.25
2023-07-03T09:36:59.056Z,10.00
2023-07-03T09:39:28.410Z,6.80
2023-07-03T09:42:06.079Z,13.45
2023-07-03T09:44:33.446Z,14.45
2023-07-03T09:47:01.278Z,11.70
2023-07-03T09:49:29.758Z,9.77
2023-07-03T09:51:58.847Z,11.00
2023-07-03T09:54:31.049Z,10.75
2023-07-03T09:56:58.663Z,11.93
2023-07-03T09:59:26.531Z,9.95
2023-07-03T10:07:06.604Z,10.32
2023-07-03T10:12:11.036Z,10.20
2023-07-03T10:14:42.844Z,12.23
2023-07-03T10:17:14.116Z,12.75
2023-07-03T10:19:42.538Z,15.02
2023-07-03T10:22:10.437Z,13.45
2023-07-03T10:24:39.981Z,12.82
2023-07-03T10:27:07.839Z,9.50
2023-07-03T10:29:38.389Z,15.05
2023-07-03T10:32:07.047Z,10.45
2023-07-03T10:34:38.360Z,12.93
2023-07-03T10:37:07.168Z,13.35
2023-07-03T10:39:39.502Z,13.05
2023-07-03T10:42:11.938Z,13.50
2023-07-03T10:44:40.569Z,11.35
2023-07-03T10:47:11.138Z,11.50
2023-07-03T10:49:40.611Z,11.35
2023-07-03T10:52:13.400Z,11.55
2023-07-03T10:54:48.688Z,13.48
2023-07-03T10:57:21.632Z,10.95
2023-07-03T10:59:50.415Z,11.90
2023-07-03T11:02:21.603Z,10.23
2023-07-03T11:04:54.955Z,10.88
2023-07-03T11:07:28.267Z,13.95
2023-07-03T11:09:59.606Z,11.05
2023-07-03T11:12:34.019Z,12.68
2023-07-03T11:15:10.678Z,9.93
2023-07-03T11:20:21.937Z,13.38
2023-07-03T11:22:51.448Z,12.45
2023-07-03T11:25:21.486Z,9.98
2023-07-03T11:27:55.835Z,10.18
2023-07-03T11:30:26.981Z,7.55
2023-07-03T11:32:55.160Z,10.52
2023-07-03T11:40:35.948Z,8.52
2023-07-03T11:46:02.516Z,8.50
2023-07-03T11:48:30.718Z,11.63
2023-07-03T11:50:58.947Z,11.95
2023-07-03T11:53:31.349Z,8.90
2023-07-03T11:55:59.117Z,11.95
2023-07-03T11:58:28.628Z,13.55
2023-07-03T12:01:14.737Z,9.98
2023-07-03T12:03:51.747Z,12.07
2023-07-03T12:06:34.008Z,10.20
2023-07-03T12:09:16.294Z,7.22
2023-07-03T12:12:00.175Z,10.43
2023-07-03T12:14:42.749Z,10.80
2023-07-03T12:17:17.827Z,11.05
2023-07-03T12:19:45.413Z,9.00
2023-07-03T12:22:13.650Z,11.82
2023-07-03T12:24:40.987Z,7.60
2023-07-03T12:27:09.440Z,9.88
2023-07-03T12:29:37.817Z,14.20
2023-07-03T12:32:08.546Z,10.20
2023-07-03T12:34:38.204Z,14.30
2023-07-03T12:37:07.088Z,11.43
2023-07-03T12:39:36.191Z,7.50
2023-07-03T12:42:07.706Z,7.38
2023-07-03T12:44:35.267Z,9.80
2023-07-03T12:47:08.528Z,8.00
2023-07-03T12:49:49.062Z,10.75
2023-07-03T12:52:17.034Z,9.60
2023-07-03T12:54:44.504Z,12.00
2023-07-03T12:57:12.142Z,13.52
2023-07-03T12:59:39.561Z,13.30
2023-07-03T13:02:07.991Z,14.18
2023-07-03T13:04:36.054Z,9.75
2023-07-03T13:07:05.436Z,11.20
2023-07-03T13:09:33.871Z,9.73
2023-07-03T13:12:01.264Z,16.02
2023-07-03T13:14:30.123Z,12.00
2023-07-03T13:16:58.611Z,9.40
2023-07-03T13:19:27.406Z,10.00
2023-07-03T13:21:54.989Z,11.18
2023-07-03T13:24:24.741Z,15.93
2023-07-03T13:26:52.365Z,16.83
2023-07-03T13:29:23.996Z,10.73
2023-07-03T13:31:52.946Z,9.65
2023-07-03T13:34:21.724Z,16.13
2023-07-03T13:36:51.506Z,11.32
2023-07-03T13:39:32.822Z,14.68
2023-07-03T13:42:00.335Z,12.60
2023-07-03T13:44:28.005Z,10.55
2023-07-03T13:46:55.903Z,8.88
2023-07-03T13:49:23.398Z,9.57
2023-07-03T13:51:51.866Z,8.60
2023-07-03T13:54:19.339Z,10.68
2023-07-03T13:56:48.103Z,9.95
2023-07-03T13:59:15.612Z,10.13
2023-07-03T14:01:43.956Z,11.30
2023-07-03T14:04:12.351Z,5.97
2023-07-03T14:06:39.786Z,8.30
2023-07-03T14:09:09.781Z,8.63
2023-07-03T14:11:37.371Z,8.60
2023-07-03T14:14:06.909Z,11.88
2023-07-03T14:16:34.293Z,12.95
2023-07-03T14:19:03.756Z,13.23
2023-07-03T14:21:33.212Z,13.45
2023-07-03T14:24:00.554Z,10.57
2023-07-03T14:26:27.911Z,11.25
2023-07-03T14:28:55.272Z,9.43
2023-07-03T14:31:24.889Z,13.75
2023-07-03T14:33:52.332Z,8.35
2023-07-03T14:36:19.824Z,10.07
2023-07-03T14:38:47.592Z,8.48
2023-07-03T14:41:15.248Z,12.65
2023-07-03T14:43:42.610Z,11.00
2023-07-03T14:46:10.227Z,15.52
2023-07-03T14:48:39.029Z,10.30
2023-07-03T14:51:06.619Z,11.35
2023-07-03T14:53:33.993Z,11.13
2023-07-03T14:56:03.493Z,12.98
2023-07-03T14:58:31.318Z,13.25
2023-07-03T15:01:01.187Z,15.13
2023-07-03T15:03:28.784Z,16.50
2023-07-03T15:05:57.667Z,10.30
2023-07-03T15:08:25.094Z,9.77
2023-07-03T15:10:52.459Z,12.48
2023-07-03T15:13:19.902Z,12.63
2023-07-03T15:15:51.268Z,12.25
2023-07-03T15:18:18.893Z,11.88
2023-07-03T15:20:47.283Z,13.18
2023-07-03T15:23:16.463Z,11.77
2023-07-03T15:25:43.886Z,12.15
2023-07-03T15:28:11.306Z,15.18
2023-07-03T15:30:39.767Z,11.23
2023-07-03T15:33:07.224Z,8.93
2023-07-03T15:35:34.669Z,12.45
2023-07-03T15:38:02.034Z,11.15
2023-07-03T15:40:30.809Z,13.45
2023-07-03T15:42:58.260Z,13.18
2023-07-03T15:45:26.249Z,10.77
2023-07-03T15:47:53.697Z,11.88
2023-07-03T15:50:21.159Z,12.50
2023-07-03T15:52:48.542Z,14.82
2023-07-03T15:55:15.980Z,12.23
2023-07-03T15:57:44.712Z,14.75
2023-07-03T16:00:12.815Z,11.60
2023-07-03T16:02:40.254Z,12.95
2023-07-03T16:05:07.870Z,14.25
2023-07-03T16:07:35.799Z,20.98
2023-07-03T16:10:03.384Z,14.88
2023-07-03T16:12:30.816Z,12.98
2023-07-03T16:14:59.530Z,14.05
2023-07-03T16:17:27.077Z,17.48
2023-07-03T16:20:04.098Z,15.57
2023-07-03T16:22:31.565Z,12.00
2023-07-03T16:24:58.965Z,20.25
2023-07-03T16:27:26.314Z,14.10
2023-07-03T16:29:53.681Z,12.18
2023-07-03T16:32:22.441Z,13.05
2023-07-03T16:34:49.894Z,13.65
2023-07-03T16:37:17.273Z,9.85
2023-07-03T16:39:44.652Z,16.85
2023-07-03T16:42:12.045Z,11.20
2023-07-03T16:44:39.431Z,11.75
2023-07-03T16:47:06.947Z,15.93
2023-07-03T16:49:35.669Z,12.52
2023-07-03T16:52:03.334Z,17.90
2023-07-03T16:54:30.725Z,12.38
2023-07-03T16:56:58.117Z,16.95
2023-07-03T16:59:25.428Z,14.60
2023-07-03T17:01:52.883Z,20.02
2023-07-03T17:04:20.323Z,13.35
2023-07-03T17:06:49.149Z,17.55
2023-07-03T17:09:19.330Z,15.55
2023-07-03T17:11:46.897Z,11.70
2023-07-03T17:14:14.345Z,13.48
2023-07-03T17:16:41.779Z,13.02
2023-07-03T17:19:09.178Z,15.57
2023-07-03T17:21:38.244Z,16.25
2023-07-03T17:24:07.650Z,10.10
2023-07-03T17:26:35.126Z,14.35
2023-07-03T17:29:04.340Z,13.75
2023-07-03T17:31:31.983Z,16.00
2023-07-03T17:33:59.471Z,12.45
2023-07-03T17:36:26.831Z,14.10
2023-07-03T17:38:54.249Z,11.75
2023-07-03T17:41:24.450Z,12.70
2023-07-03T17:43:52.331Z,17.80
2023-07-03T17:46:19.702Z,12.05
2023-07-03T17:48:47.173Z,12.55
2023-07-03T17:51:14.621Z,15.95
2023-07-03T17:53:42.554Z,14.48
2023-07-03T17:56:09.971Z,13.65
2023-07-03T17:58:38.717Z,14.77
2023-07-03T18:01:06.457Z,12.90
2023-07-03T18:03:34.660Z,16.30
2023-07-03T18:06:02.307Z,14.00
2023-07-03T18:08:29.736Z,11.52
2023-07-03T18:10:57.157Z,14.07
2023-07-03T18:13:24.568Z,13.05
2023-07-03T18:15:53.285Z,15.02
2023-07-03T18:18:21.607Z,14.95
2023-07-03T18:20:49.130Z,15.50
2023-07-03T18:23:16.580Z,13.25
2023-07-03T18:25:43.960Z,11.13
2023-07-03T18:28:11.292Z,14.63
2023-07-03T18:30:38.697Z,16.23
2023-07-03T18:33:07.416Z,19.98
2023-07-03T18:35:35.738Z,15.38
2023-07-03T18:38:04.694Z,13.10
2023-07-03T18:40:32.054Z,13.75
2023-07-03T18:42:59.410Z,17.25
2023-07-03T18:45:26.783Z,17.50
2023-07-03T18:47:54.230Z,16.45
2023-07-03T18:50:23.164Z,16.35
2023-07-03T18:52:50.716Z,15.70
2023-07-03T18:55:18.912Z,14.23
2023-07-03T18:57:47.446Z,17.77
2023-07-03T19:00:15.684Z,17.40
2023-07-03T19:02:45.919Z,13.00
2023-07-03T19:05:13.469Z,18.38
2023-07-03T19:07:43.497Z,16.10
2023-07-03T19:10:18.311Z,12.90
2023-07-03T19:12:46.514Z,16.67
2023-07-03T19:15:13.967Z,16.27
2023-07-03T19:17:41.392Z,12.38
2023-07-03T19:20:11.122Z,17.73
2023-07-03T19:22:38.560Z,15.55
2023-07-03T19:25:08.255Z,15.07
2023-07-03T19:27:35.696Z,16.98
2023-07-03T19:30:03.538Z,12.52
2023-07-03T19:32:30.983Z,16.95
2023-07-03T19:34:58.359Z,15.50
2023-07-03T19:37:26.242Z,14.77
2023-07-03T19:39:53.596Z,17.67
2023-07-03T19:42:22.327Z,13.07
2023-07-03T19:44:49.715Z,17.02
2023-07-03T19:47:17.167Z,22.33
2023-07-03T19:49:44.801Z,15.23
2023-07-03T19:52:13.025Z,19.90
2023-07-03T19:54:40.440Z,15.23
2023-07-03T19:57:07.891Z,15.55
2023-07-03T19:59:38.055Z,12.48
2023-07-03T20:02:06.674Z,15.35
2023-07-03T20:04:34.288Z,17.52
2023-07-03T20:07:01.837Z,14.07
2023-07-03T20:09:29.997Z,16.60
2023-07-03T20:11:57.389Z,14.80
2023-07-03T20:14:24.823Z,15.50
2023-07-03T20:16:53.631Z,13.85
2023-07-03T20:19:21.258Z,14.00
2023-07-03T20:21:48.620Z,16.33
2023-07-03T20:24:15.998Z,16.50
2023-07-03T20:26:43.347Z,15.15
2023-07-03T20:29:10.836Z,15.63
2023-07-03T20:31:38.173Z,13.07
2023-07-03T20:34:06.874Z,15.32
2023-07-03T20:36:35.331Z,10.98
2023-07-03T20:39:04.733Z,10.25
2023-07-03T20:41:33.668Z,12.93
2023-07-03T20:44:05.703Z,14.07
2023-07-03T20:46:34.031Z,12.38
2023-07-03T20:49:01.744Z,18.25
2023-07-03T20:51:33.579Z,14.02
2023-07-03T20:54:04.137Z,11.18
2023-07-03T20:56:33.103Z,9.57
2023-07-03T20:59:01.433Z,13.57
2023-07-03T21:01:30.483Z,8.65
2023-07-03T21:03:59.882Z,9.20
2023-07-03T21:06:27.998Z,8.73
2023-07-03T21:08:57.127Z,8.70
2023-07-03T21:11:25.723Z,10.02
2023-07-03T21:13:54.791Z,11.18
2023-07-03T21:16:23.596Z,9.88
2023-07-03T21:18:51.197Z,13.63
2023-07-03T21:21:19.497Z,12.85
2023-07-03T21:23:47.357Z,9.23
2023-07-03T21:26:17.196Z,14.70
2023-07-03T21:28:44.575Z,10.55
2023-07-03T21:31:12.820Z,12.35
2023-07-03T21:33:40.398Z,12.85
2023-07-03T21:36:08.431Z,11.75
2023-07-03T21:38:36.915Z,10.65
2023-07-03T21:41:04.286Z,9.80
2023-07-03T21:43:33.462Z,6.82
2023-07-03T21:46:02.219Z,10.75
2023-07-03T21:48:29.732Z,9.38
2023-07-03T21:50:57.160Z,11.10
2023-07-03T21:53:24.524Z,11.65
2023-07-03T21:55:52.131Z,10.32
2023-07-03T21:58:19.618Z,8.85
2023-07-03T22:00:50.240Z,12.43
2023-07-03T22:03:17.621Z,13.52
2023-07-03T22:05:44.967Z,10.00
2023-07-03T22:08:12.472Z,11.77
2023-07-03T22:10:39.798Z,9.10
2023-07-03T22:13:07.359Z,11.00
2023-07-03T22:15:35.075Z,8.63
2023-07-03T22:18:03.856Z,9.20
2023-07-03T22:20:32.217Z,6.05
2023-07-03T22:22:59.822Z,13.57
2023-07-03T22:25:27.330Z,10.23
2023-07-03T22:27:54.684Z,11.23
2023-07-03T22:30:22.202Z,9.77
2023-07-03T22:32:49.611Z,7.72
2023-07-03T22:35:18.833Z,4.55
2023-07-03T22:37:46.286Z,9.75
2023-07-03T22:40:14.737Z,7.03
2023-07-03T22:42:42.335Z,8.82
2023-07-03T22:45:10.867Z,9.88
2023-07-03T22:47:38.298Z,7.65
2023-07-03T22:50:06.338Z,11.43
2023-07-03T22:52:35.682Z,9.00
2023-07-03T22:55:04.998Z,11.50
2023-07-03T22:57:32.392Z,8.82
2023-07-03T23:00:00.011Z,13.02
2023-07-03T23:02:29.293Z,8.07
2023-07-03T23:04:56.722Z,14.82
2023-07-03T23:07:24.108Z,8.82
2023-07-03T23:09:52.861Z,10.60
2023-07-03T23:12:20.223Z,9.38
2023-07-03T23:14:49.489Z,12.88
2023-07-03T23:17:24.756Z,8.95
2023-07-03T23:19:53.788Z,11.10
2023-07-03T23:22:21.310Z,9.48
2023-07-03T23:24:49.277Z,8.30
2023-07-03T23:27:20.432Z,7.07
2023-07-03T23:29:47.860Z,11.68
2023-07-03T23:32:15.557Z,7.97
2023-07-03T23:34:43.273Z,9.60
2023-07-03T23:37:10.795Z,12.30
2023-07-03T23:39:38.205Z,12.32
2023-07-03T23:42:06.580Z,8.00
2023-07-03T23:44:35.629Z,7.85
2023-07-03T23:47:03.303Z,12.18
2023-07-03T23:49:31.019Z,9.45
2023-07-03T23:51:58.448Z,7.82
2023-07-03T23:54:26.208Z,12.40
2023-07-03T23:56:53.874Z,9.05
2023-07-03T23:59:21.646Z,14.32
